sensor_id;sensor_type;location;lat;lon;timestamp;temperature;humidity
12682;DHT22;6405;59.208;18.216;2022-07-01T00:02:19;18.40;99.90
12682;DHT22;6405;59.208;18.216;2022-07-01T00:04:45;18.40;99.90
12682;DHT22;6405;59.208;18.216;2022-07-01T00:07:12;18.30;99.90
12682;DHT22;6405;59.208;18.216;2022-07-01T00:09:40;18.30;99.90
12682;DHT22;6405;59.208;18.216;2022-07-01T00:12:07;18.20;99.90
12682;DHT22;6405;59.208;18.216;2022-07-01T00:14:35;18.20;99.90
12682;DHT22;6405;59.208;18.216;2022-07-01T00:17:03;18.10;99.90
12682;DHT22;6405;59.208;18.216;2022-07-01T00:19:29;18.10;99.90
12682;DHT22;6405;59.208;18.216;2022-07-01T00:21:55;18.00;99.90
12682;DHT22;6405;59.208;18.216;2022-07-01T00:24:23;18.00;99.90
12682;DHT22;6405;59.208;18.216;2022-07-01T00:26:49;17.90;99.90
12682;DHT22;6405;59.208;18.216;2022-07-01T00:29:16;17.90;99.90
12682;DHT22;6405;59.208;18.216;2022-07-01T00:31:42;17.90;99.90
12682;DHT22;6405;59.208;18.216;2022-07-01T00:34:09;17.90;99.90
12682;DHT22;6405;59.208;18.216;2022-07-01T00:36:34;17.80;99.90
12682;DHT22;6405;59.208;18.216;2022-07-01T00:39:02;17.80;99.90
12682;DHT22;6405;59.208;18.216;2022-07-01T00:41:28;17.80;99.90
12682;DHT22;6405;59.208;18.216;2022-07-01T00:43:53;17.80;99.90
12682;DHT22;6405;59.208;18.216;2022-07-01T00:46:22;17.70;99.90
12682;DHT22;6405;59.208;18.216;2022-07-01T00:48:52;17.80;99.90
12682;DHT22;6405;59.208;18.216;2022-07-01T00:51:22;17.80;99.90
12682;DHT22;6405;59.208;18.216;2022-07-01T00:53:49;17.80;99.90
12682;DHT22;6405;59.208;18.216;2022-07-01T00:56:18;17.80;99.90
12682;DHT22;6405;59.208;18.216;2022-07-01T00:58:45;17.80;99.90
12682;DHT22;6405;59.208;18.216;2022-07-01T01:01:12;17.80;99.90
12682;DHT22;6405;59.208;18.216;2022-07-01T01:03:38;17.90;99.90
12682;DHT22;6405;59.208;18.216;2022-07-01T01:06:06;17.90;99.90
12682;DHT22;6405;59.208;18.216;2022-07-01T01:08:33;17.90;99.90
12682;DHT22;6405;59.208;18.216;2022-07-01T01:11:01;17.90;99.90
12682;DHT22;6405;59.208;18.216;2022-07-01T01:13:27;17.90;99.90
12682;DHT22;6405;59.208;18.216;2022-07-01T01:15:54;17.90;99.90
12682;DHT22;6405;59.208;18.216;2022-07-01T01:18:21;17.90;99.90
12682;DHT22;6405;59.208;18.216;2022-07-01T01:20:47;17.90;99.90
12682;DHT22;6405;59.208;18.216;2022-07-01T01:23:13;17.90;99.90
12682;DHT22;6405;59.208;18.216;2022-07-01T01:25:40;17.90;99.90
12682;DHT22;6405;59.208;18.216;2022-07-01T01:28:06;17.90;99.90
12682;DHT22;6405;59.208;18.216;2022-07-01T01:30:33;17.90;99.90
12682;DHT22;6405;59.208;18.216;2022-07-01T01:33:02;17.90;99.90
12682;DHT22;6405;59.208;18.216;2022-07-01T01:35:29;17.80;99.90
12682;DHT22;6405;59.208;18.216;2022-07-01T01:37:58;17.80;99.90
12682;DHT22;6405;59.208;18.216;2022-07-01T01:40:26;17.80;99.90
12682;DHT22;6405;59.208;18.216;2022-07-01T01:42:53;17.70;99.90
12682;DHT22;6405;59.208;18.216;2022-07-01T01:45:19;17.70;99.90
12682;DHT22;6405;59.208;18.216;2022-07-01T01:47:46;17.70;99.90
12682;DHT22;6405;59.208;18.216;2022-07-01T01:50:14;17.70;99.90
12682;DHT22;6405;59.208;18.216;2022-07-01T01:52:42;17.60;99.90
12682;DHT22;6405;59.208;18.216;2022-07-01T01:55:09;17.60;99.90
12682;DHT22;6405;59.208;18.216;2022-07-01T01:57:37;17.60;99.90
12682;DHT22;6405;59.208;18.216;2022-07-01T02:00:06;17.60;99.90
12682;DHT22;6405;59.208;18.216;2022-07-01T02:02:33;17.60;99.90
12682;DHT22;6405;59.208;18.216;2022-07-01T02:05:06;17.60;99.90
12682;DHT22;6405;59.208;18.216;2022-07-01T02:07:33;17.70;99.90
12682;DHT22;6405;59.208;18.216;2022-07-01T02:10:01;17.70;99.90
12682;DHT22;6405;59.208;18.216;2022-07-01T02:12:28;17.70;99.90
12682;DHT22;6405;59.208;18.216;2022-07-01T02:14:54;17.80;99.90
12682;DHT22;6405;59.208;18.216;2022-07-01T02:17:22;17.80;99.90
12682;DHT22;6405;59.208;18.216;2022-07-01T02:19:49;17.90;99.90
12682;DHT22;6405;59.208;18.216;2022-07-01T02:22:17;17.90;99.90
12682;DHT22;6405;59.208;18.216;2022-07-01T02:24:42;17.90;99.90
12682;DHT22;6405;59.208;18.216;2022-07-01T02:27:10;18.00;99.90
12682;DHT22;6405;59.208;18.216;2022-07-01T02:29:39;18.00;99.90
12682;DHT22;6405;59.208;18.216;2022-07-01T02:32:08;18.00;99.90
12682;DHT22;6405;59.208;18.216;2022-07-01T02:34:35;18.10;99.90
12682;DHT22;6405;59.208;18.216;2022-07-01T02:37:03;18.10;99.90
12682;DHT22;6405;59.208;18.216;2022-07-01T02:39:32;18.20;99.90
12682;DHT22;6405;59.208;18.216;2022-07-01T02:41:59;18.20;99.90
12682;DHT22;6405;59.208;18.216;2022-07-01T02:44:44;18.20;99.90
12682;DHT22;6405;59.208;18.216;2022-07-01T02:47:11;18.30;99.90
12682;DHT22;6405;59.208;18.216;2022-07-01T02:49:38;18.40;99.90
12682;DHT22;6405;59.208;18.216;2022-07-01T02:52:06;18.40;99.90
12682;DHT22;6405;59.208;18.216;2022-07-01T02:54:33;18.50;99.90
12682;DHT22;6405;59.208;18.216;2022-07-01T02:57:00;18.60;99.90
12682;DHT22;6405;59.208;18.216;2022-07-01T02:59:30;18.60;99.90
12682;DHT22;6405;59.208;18.216;2022-07-01T03:01:57;18.70;99.90
12682;DHT22;6405;59.208;18.216;2022-07-01T03:04:27;18.80;99.90
12682;DHT22;6405;59.208;18.216;2022-07-01T03:06:54;18.80;99.90
12682;DHT22;6405;59.208;18.216;2022-07-01T03:09:22;18.90;99.90
12682;DHT22;6405;59.208;18.216;2022-07-01T03:11:50;18.90;99.90
12682;DHT22;6405;59.208;18.216;2022-07-01T03:14:17;18.90;99.90
12682;DHT22;6405;59.208;18.216;2022-07-01T03:16:44;19.00;99.90
12682;DHT22;6405;59.208;18.216;2022-07-01T03:19:14;19.00;99.90
12682;DHT22;6405;59.208;18.216;2022-07-01T03:21:42;19.00;99.90
12682;DHT22;6405;59.208;18.216;2022-07-01T03:24:09;19.10;99.90
12682;DHT22;6405;59.208;18.216;2022-07-01T03:26:36;19.10;99.90
12682;DHT22;6405;59.208;18.216;2022-07-01T03:29:03;19.10;99.90
12682;DHT22;6405;59.208;18.216;2022-07-01T03:31:31;19.10;99.90
12682;DHT22;6405;59.208;18.216;2022-07-01T03:33:57;19.10;99.90
12682;DHT22;6405;59.208;18.216;2022-07-01T03:36:24;19.10;99.90
12682;DHT22;6405;59.208;18.216;2022-07-01T03:38:51;19.10;99.90
12682;DHT22;6405;59.208;18.216;2022-07-01T03:41:17;19.20;99.90
12682;DHT22;6405;59.208;18.216;2022-07-01T03:43:44;19.20;99.90
12682;DHT22;6405;59.208;18.216;2022-07-01T03:46:12;19.20;99.90
12682;DHT22;6405;59.208;18.216;2022-07-01T03:48:38;19.20;99.90
12682;DHT22;6405;59.208;18.216;2022-07-01T03:51:07;19.20;99.90
12682;DHT22;6405;59.208;18.216;2022-07-01T03:53:33;19.20;99.90
12682;DHT22;6405;59.208;18.216;2022-07-01T03:56:19;19.20;99.90
12682;DHT22;6405;59.208;18.216;2022-07-01T03:58:46;19.30;99.90
12682;DHT22;6405;59.208;18.216;2022-07-01T04:01:14;19.30;99.90
12682;DHT22;6405;59.208;18.216;2022-07-01T04:03:40;19.30;99.90
12682;DHT22;6405;59.208;18.216;2022-07-01T04:06:07;19.40;99.90
12682;DHT22;6405;59.208;18.216;2022-07-01T04:08:35;19.40;99.90
12682;DHT22;6405;59.208;18.216;2022-07-01T04:11:02;19.40;99.90
12682;DHT22;6405;59.208;18.216;2022-07-01T04:13:29;19.30;99.90
12682;DHT22;6405;59.208;18.216;2022-07-01T04:15:57;19.40;99.90
12682;DHT22;6405;59.208;18.216;2022-07-01T04:18:25;19.40;99.90
12682;DHT22;6405;59.208;18.216;2022-07-01T04:20:53;19.30;99.90
12682;DHT22;6405;59.208;18.216;2022-07-01T04:23:55;19.30;99.90
12682;DHT22;6405;59.208;18.216;2022-07-01T04:26:23;19.30;99.90
12682;DHT22;6405;59.208;18.216;2022-07-01T04:28:51;19.30;99.90
12682;DHT22;6405;59.208;18.216;2022-07-01T04:31:18;19.30;99.90
12682;DHT22;6405;59.208;18.216;2022-07-01T04:33:46;19.30;99.90
12682;DHT22;6405;59.208;18.216;2022-07-01T04:36:14;19.40;99.90
12682;DHT22;6405;59.208;18.216;2022-07-01T04:38:41;19.40;99.90
12682;DHT22;6405;59.208;18.216;2022-07-01T04:41:07;19.40;99.90
12682;DHT22;6405;59.208;18.216;2022-07-01T04:43:53;19.40;99.90
12682;DHT22;6405;59.208;18.216;2022-07-01T04:46:20;19.40;99.90
12682;DHT22;6405;59.208;18.216;2022-07-01T04:48:47;19.40;99.90
12682;DHT22;6405;59.208;18.216;2022-07-01T04:51:13;19.40;99.90
12682;DHT22;6405;59.208;18.216;2022-07-01T04:53:41;19.40;99.90
12682;DHT22;6405;59.208;18.216;2022-07-01T04:56:06;19.40;99.90
12682;DHT22;6405;59.208;18.216;2022-07-01T04:58:33;19.50;99.90
12682;DHT22;6405;59.208;18.216;2022-07-01T05:01:00;19.50;99.90
12682;DHT22;6405;59.208;18.216;2022-07-01T05:03:26;19.50;99.90
12682;DHT22;6405;59.208;18.216;2022-07-01T05:05:53;19.50;99.90
12682;DHT22;6405;59.208;18.216;2022-07-01T05:08:20;19.50;99.90
12682;DHT22;6405;59.208;18.216;2022-07-01T05:10:46;19.50;99.90
12682;DHT22;6405;59.208;18.216;2022-07-01T05:13:12;19.50;99.90
12682;DHT22;6405;59.208;18.216;2022-07-01T05:15:38;19.50;99.90
12682;DHT22;6405;59.208;18.216;2022-07-01T05:18:05;19.60;99.90
12682;DHT22;6405;59.208;18.216;2022-07-01T05:20:52;19.60;99.90
12682;DHT22;6405;59.208;18.216;2022-07-01T05:23:37;19.50;99.90
12682;DHT22;6405;59.208;18.216;2022-07-01T05:26:04;19.60;99.90
12682;DHT22;6405;59.208;18.216;2022-07-01T05:28:31;19.60;99.90
12682;DHT22;6405;59.208;18.216;2022-07-01T05:30:57;19.60;99.90
12682;DHT22;6405;59.208;18.216;2022-07-01T05:33:24;19.60;99.90
12682;DHT22;6405;59.208;18.216;2022-07-01T05:35:53;19.70;99.90
12682;DHT22;6405;59.208;18.216;2022-07-01T05:38:21;19.60;99.90
12682;DHT22;6405;59.208;18.216;2022-07-01T05:40:48;19.60;99.90
12682;DHT22;6405;59.208;18.216;2022-07-01T05:43:15;19.70;99.90
12682;DHT22;6405;59.208;18.216;2022-07-01T05:45:42;19.70;99.90
12682;DHT22;6405;59.208;18.216;2022-07-01T05:48:09;19.80;99.90
12682;DHT22;6405;59.208;18.216;2022-07-01T05:50:36;19.80;99.90
12682;DHT22;6405;59.208;18.216;2022-07-01T05:53:04;20.00;99.90
12682;DHT22;6405;59.208;18.216;2022-07-01T05:55:31;20.00;99.90
12682;DHT22;6405;59.208;18.216;2022-07-01T05:57:57;20.10;99.90
12682;DHT22;6405;59.208;18.216;2022-07-01T06:00:25;20.10;99.90
12682;DHT22;6405;59.208;18.216;2022-07-01T06:02:51;20.10;99.90
12682;DHT22;6405;59.208;18.216;2022-07-01T06:05:18;20.10;99.90
12682;DHT22;6405;59.208;18.216;2022-07-01T06:07:44;20.00;99.90
12682;DHT22;6405;59.208;18.216;2022-07-01T06:10:11;20.00;99.90
12682;DHT22;6405;59.208;18.216;2022-07-01T06:12:39;20.00;99.90
12682;DHT22;6405;59.208;18.216;2022-07-01T06:15:08;20.10;99.90
12682;DHT22;6405;59.208;18.216;2022-07-01T06:17:35;20.10;99.90
12682;DHT22;6405;59.208;18.216;2022-07-01T06:20:02;20.10;99.90
12682;DHT22;6405;59.208;18.216;2022-07-01T06:22:28;20.10;99.90
12682;DHT22;6405;59.208;18.216;2022-07-01T06:24:55;20.20;99.90
12682;DHT22;6405;59.208;18.216;2022-07-01T06:27:22;20.10;99.90
12682;DHT22;6405;59.208;18.216;2022-07-01T06:29:50;20.10;99.90
12682;DHT22;6405;59.208;18.216;2022-07-01T06:32:17;20.10;99.90
12682;DHT22;6405;59.208;18.216;2022-07-01T06:34:44;20.10;99.90
12682;DHT22;6405;59.208;18.216;2022-07-01T06:37:10;20.10;99.90
12682;DHT22;6405;59.208;18.216;2022-07-01T06:39:37;20.10;99.90
12682;DHT22;6405;59.208;18.216;2022-07-01T06:42:04;20.10;99.90
12682;DHT22;6405;59.208;18.216;2022-07-01T06:44:31;20.10;99.90
12682;DHT22;6405;59.208;18.216;2022-07-01T06:46:58;20.10;99.90
12682;DHT22;6405;59.208;18.216;2022-07-01T06:49:24;20.10;99.90
12682;DHT22;6405;59.208;18.216;2022-07-01T06:51:51;20.10;99.90
12682;DHT22;6405;59.208;18.216;2022-07-01T06:54:17;20.10;99.90
12682;DHT22;6405;59.208;18.216;2022-07-01T06:56:44;20.00;99.90
12682;DHT22;6405;59.208;18.216;2022-07-01T06:59:12;20.00;99.90
12682;DHT22;6405;59.208;18.216;2022-07-01T07:01:38;20.00;99.90
12682;DHT22;6405;59.208;18.216;2022-07-01T07:04:05;20.00;99.90
12682;DHT22;6405;59.208;18.216;2022-07-01T07:06:33;19.90;99.90
12682;DHT22;6405;59.208;18.216;2022-07-01T07:08:59;20.00;99.90
12682;DHT22;6405;59.208;18.216;2022-07-01T07:11:27;19.90;99.90
12682;DHT22;6405;59.208;18.216;2022-07-01T07:13:54;19.90;99.90
12682;DHT22;6405;59.208;18.216;2022-07-01T07:16:22;19.80;99.90
12682;DHT22;6405;59.208;18.216;2022-07-01T07:18:50;19.80;99.90
12682;DHT22;6405;59.208;18.216;2022-07-01T07:21:17;19.80;99.90
12682;DHT22;6405;59.208;18.216;2022-07-01T07:23:43;19.80;99.90
12682;DHT22;6405;59.208;18.216;2022-07-01T07:26:10;19.80;99.90
12682;DHT22;6405;59.208;18.216;2022-07-01T07:28:37;19.90;99.90
12682;DHT22;6405;59.208;18.216;2022-07-01T07:31:05;19.90;99.90
12682;DHT22;6405;59.208;18.216;2022-07-01T07:33:31;19.80;99.90
12682;DHT22;6405;59.208;18.216;2022-07-01T07:35:59;19.80;99.90
12682;DHT22;6405;59.208;18.216;2022-07-01T07:38:25;19.80;99.90
12682;DHT22;6405;59.208;18.216;2022-07-01T07:40:53;19.70;99.90
12682;DHT22;6405;59.208;18.216;2022-07-01T07:43:20;19.80;99.90
12682;DHT22;6405;59.208;18.216;2022-07-01T07:45:48;19.70;99.90
12682;DHT22;6405;59.208;18.216;2022-07-01T07:48:15;19.80;99.90
12682;DHT22;6405;59.208;18.216;2022-07-01T07:50:42;19.70;99.90
12682;DHT22;6405;59.208;18.216;2022-07-01T07:53:09;19.60;99.90
12682;DHT22;6405;59.208;18.216;2022-07-01T07:55:39;19.60;99.90
12682;DHT22;6405;59.208;18.216;2022-07-01T07:58:07;19.70;99.90
12682;DHT22;6405;59.208;18.216;2022-07-01T08:00:34;19.70;99.90
12682;DHT22;6405;59.208;18.216;2022-07-01T08:03:01;19.70;99.90
12682;DHT22;6405;59.208;18.216;2022-07-01T08:05:27;19.70;99.90
12682;DHT22;6405;59.208;18.216;2022-07-01T08:07:54;19.80;99.90
12682;DHT22;6405;59.208;18.216;2022-07-01T08:10:21;19.90;99.90
12682;DHT22;6405;59.208;18.216;2022-07-01T08:12:48;19.90;99.90
12682;DHT22;6405;59.208;18.216;2022-07-01T08:15:14;19.90;99.90
12682;DHT22;6405;59.208;18.216;2022-07-01T08:17:41;20.00;99.90
12682;DHT22;6405;59.208;18.216;2022-07-01T08:20:08;20.00;99.90
12682;DHT22;6405;59.208;18.216;2022-07-01T08:22:34;20.00;99.90
12682;DHT22;6405;59.208;18.216;2022-07-01T08:25:01;20.00;99.90
12682;DHT22;6405;59.208;18.216;2022-07-01T08:27:28;20.10;99.90
12682;DHT22;6405;59.208;18.216;2022-07-01T08:29:56;20.10;99.90
12682;DHT22;6405;59.208;18.216;2022-07-01T08:32:22;20.10;99.90
12682;DHT22;6405;59.208;18.216;2022-07-01T08:34:51;20.10;99.90
12682;DHT22;6405;59.208;18.216;2022-07-01T08:37:17;20.10;99.90
12682;DHT22;6405;59.208;18.216;2022-07-01T08:39:43;20.30;99.90
12682;DHT22;6405;59.208;18.216;2022-07-01T08:42:10;20.40;99.90
12682;DHT22;6405;59.208;18.216;2022-07-01T08:44:38;20.40;99.90
12682;DHT22;6405;59.208;18.216;2022-07-01T08:47:04;20.50;99.90
12682;DHT22;6405;59.208;18.216;2022-07-01T08:49:33;20.60;99.90
12682;DHT22;6405;59.208;18.216;2022-07-01T08:52:00;20.60;99.90
12682;DHT22;6405;59.208;18.216;2022-07-01T08:54:26;20.70;99.90
12682;DHT22;6405;59.208;18.216;2022-07-01T08:56:53;20.70;99.90
12682;DHT22;6405;59.208;18.216;2022-07-01T08:59:25;20.60;99.90
12682;DHT22;6405;59.208;18.216;2022-07-01T09:02:00;20.60;99.90
12682;DHT22;6405;59.208;18.216;2022-07-01T09:04:29;20.60;99.90
12682;DHT22;6405;59.208;18.216;2022-07-01T09:07:07;20.60;99.90
12682;DHT22;6405;59.208;18.216;2022-07-01T09:09:38;20.50;99.90
12682;DHT22;6405;59.208;18.216;2022-07-01T09:12:06;20.40;99.90
12682;DHT22;6405;59.208;18.216;2022-07-01T09:14:34;20.40;99.90
12682;DHT22;6405;59.208;18.216;2022-07-01T09:17:04;20.40;99.90
12682;DHT22;6405;59.208;18.216;2022-07-01T09:19:37;20.50;99.90
12682;DHT22;6405;59.208;18.216;2022-07-01T09:22:05;20.40;99.90
12682;DHT22;6405;59.208;18.216;2022-07-01T09:24:35;20.40;99.90
12682;DHT22;6405;59.208;18.216;2022-07-01T09:29:46;20.50;99.90
12682;DHT22;6405;59.208;18.216;2022-07-01T09:32:17;20.50;99.90
12682;DHT22;6405;59.208;18.216;2022-07-01T09:34:49;20.50;99.90
12682;DHT22;6405;59.208;18.216;2022-07-01T09:37:17;20.50;99.90
12682;DHT22;6405;59.208;18.216;2022-07-01T09:39:48;20.60;99.90
12682;DHT22;6405;59.208;18.216;2022-07-01T09:42:18;20.80;99.90
12682;DHT22;6405;59.208;18.216;2022-07-01T09:44:59;20.90;99.90
12682;DHT22;6405;59.208;18.216;2022-07-01T09:47:31;20.90;99.90
12682;DHT22;6405;59.208;18.216;2022-07-01T09:49:58;21.00;99.90
12682;DHT22;6405;59.208;18.216;2022-07-01T09:52:25;21.00;99.90
12682;DHT22;6405;59.208;18.216;2022-07-01T09:54:52;21.00;99.90
12682;DHT22;6405;59.208;18.216;2022-07-01T09:57:19;21.00;99.90
12682;DHT22;6405;59.208;18.216;2022-07-01T09:59:48;21.10;99.90
12682;DHT22;6405;59.208;18.216;2022-07-01T10:02:17;21.20;99.90
12682;DHT22;6405;59.208;18.216;2022-07-01T10:04:49;21.30;99.90
12682;DHT22;6405;59.208;18.216;2022-07-01T10:07:29;21.40;99.90
12682;DHT22;6405;59.208;18.216;2022-07-01T10:12:40;21.40;99.90
12682;DHT22;6405;59.208;18.216;2022-07-01T10:15:10;21.40;99.90
12682;DHT22;6405;59.208;18.216;2022-07-01T10:17:44;21.60;99.90
12682;DHT22;6405;59.208;18.216;2022-07-01T10:20:15;21.80;99.90
12682;DHT22;6405;59.208;18.216;2022-07-01T10:22:45;22.20;99.90
12682;DHT22;6405;59.208;18.216;2022-07-01T10:25:50;22.40;99.90
12682;DHT22;6405;59.208;18.216;2022-07-01T10:28:41;22.60;99.90
12682;DHT22;6405;59.208;18.216;2022-07-01T10:31:11;22.90;99.90
12682;DHT22;6405;59.208;18.216;2022-07-01T10:33:47;23.30;99.90
12682;DHT22;6405;59.208;18.216;2022-07-01T10:44:26;23.20;99.90
12682;DHT22;6405;59.208;18.216;2022-07-01T10:46:56;23.20;99.90
12682;DHT22;6405;59.208;18.216;2022-07-01T10:52:12;22.90;99.90
12682;DHT22;6405;59.208;18.216;2022-07-01T10:59:48;23.00;99.90
12682;DHT22;6405;59.208;18.216;2022-07-01T11:02:23;23.00;99.90
12682;DHT22;6405;59.208;18.216;2022-07-01T11:04:53;23.00;99.90
12682;DHT22;6405;59.208;18.216;2022-07-01T11:07:19;22.90;99.90
12682;DHT22;6405;59.208;18.216;2022-07-01T11:09:46;22.90;99.90
12682;DHT22;6405;59.208;18.216;2022-07-01T11:12:15;23.00;99.90
12682;DHT22;6405;59.208;18.216;2022-07-01T11:14:43;22.90;99.90
12682;DHT22;6405;59.208;18.216;2022-07-01T11:17:11;22.70;99.90
12682;DHT22;6405;59.208;18.216;2022-07-01T11:19:39;22.60;99.90
12682;DHT22;6405;59.208;18.216;2022-07-01T11:22:07;22.40;99.90
12682;DHT22;6405;59.208;18.216;2022-07-01T11:24:34;22.40;99.90
12682;DHT22;6405;59.208;18.216;2022-07-01T11:27:05;22.40;99.90
12682;DHT22;6405;59.208;18.216;2022-07-01T11:29:32;22.60;99.90
12682;DHT22;6405;59.208;18.216;2022-07-01T11:32:00;22.80;99.90
12682;DHT22;6405;59.208;18.216;2022-07-01T11:34:29;22.80;99.90
12682;DHT22;6405;59.208;18.216;2022-07-01T11:36:56;22.80;99.90
12682;DHT22;6405;59.208;18.216;2022-07-01T11:39:40;22.70;99.90
12682;DHT22;6405;59.208;18.216;2022-07-01T11:42:10;22.90;99.90
12682;DHT22;6405;59.208;18.216;2022-07-01T11:44:40;23.10;99.90
12682;DHT22;6405;59.208;18.216;2022-07-01T11:47:12;23.20;99.90
12682;DHT22;6405;59.208;18.216;2022-07-01T11:49:48;23.20;99.90
12682;DHT22;6405;59.208;18.216;2022-07-01T11:52:17;23.30;99.90
12682;DHT22;6405;59.208;18.216;2022-07-01T11:54:47;23.30;99.90
12682;DHT22;6405;59.208;18.216;2022-07-01T11:57:21;23.30;99.90
12682;DHT22;6405;59.208;18.216;2022-07-01T11:59:50;23.30;99.90
12682;DHT22;6405;59.208;18.216;2022-07-01T12:02:19;23.30;99.90
12682;DHT22;6405;59.208;18.216;2022-07-01T12:04:46;23.30;99.90
12682;DHT22;6405;59.208;18.216;2022-07-01T12:07:13;23.50;99.90
12682;DHT22;6405;59.208;18.216;2022-07-01T12:09:41;23.50;99.90
12682;DHT22;6405;59.208;18.216;2022-07-01T12:12:15;23.40;99.90
12682;DHT22;6405;59.208;18.216;2022-07-01T12:14:52;23.30;99.90
12682;DHT22;6405;59.208;18.216;2022-07-01T12:17:20;23.20;99.90
12682;DHT22;6405;59.208;18.216;2022-07-01T12:19:48;23.40;99.90
12682;DHT22;6405;59.208;18.216;2022-07-01T12:25:11;23.80;99.90
12682;DHT22;6405;59.208;18.216;2022-07-01T12:27:40;23.70;99.90
12682;DHT22;6405;59.208;18.216;2022-07-01T12:30:09;23.70;99.90
12682;DHT22;6405;59.208;18.216;2022-07-01T12:32:38;23.60;99.90
12682;DHT22;6405;59.208;18.216;2022-07-01T12:35:08;23.50;99.90
12682;DHT22;6405;59.208;18.216;2022-07-01T12:37:55;23.50;99.90
12682;DHT22;6405;59.208;18.216;2022-07-01T12:40:24;23.50;99.90
12682;DHT22;6405;59.208;18.216;2022-07-01T12:42:51;23.20;99.90
12682;DHT22;6405;59.208;18.216;2022-07-01T12:45:24;23.10;99.90
12682;DHT22;6405;59.208;18.216;2022-07-01T12:47:53;23.30;99.90
12682;DHT22;6405;59.208;18.216;2022-07-01T12:50:23;23.30;99.90
12682;DHT22;6405;59.208;18.216;2022-07-01T12:53:01;23.30;99.90
12682;DHT22;6405;59.208;18.216;2022-07-01T12:55:33;23.20;99.90
12682;DHT22;6405;59.208;18.216;2022-07-01T12:58:04;23.40;99.90
12682;DHT22;6405;59.208;18.216;2022-07-01T13:00:32;23.50;99.90
12682;DHT22;6405;59.208;18.216;2022-07-01T13:02:59;23.60;99.90
12682;DHT22;6405;59.208;18.216;2022-07-01T13:05:28;23.60;99.90
12682;DHT22;6405;59.208;18.216;2022-07-01T13:07:55;23.70;99.90
12682;DHT22;6405;59.208;18.216;2022-07-01T13:10:23;23.70;99.90
12682;DHT22;6405;59.208;18.216;2022-07-01T13:12:50;23.70;99.90
12682;DHT22;6405;59.208;18.216;2022-07-01T13:15:18;23.80;99.90
12682;DHT22;6405;59.208;18.216;2022-07-01T13:17:46;23.60;99.90
12682;DHT22;6405;59.208;18.216;2022-07-01T13:20:15;23.40;99.90
12682;DHT22;6405;59.208;18.216;2022-07-01T13:22:42;23.20;99.90
12682;DHT22;6405;59.208;18.216;2022-07-01T13:25:10;23.00;99.90
12682;DHT22;6405;59.208;18.216;2022-07-01T13:27:38;23.10;99.90
12682;DHT22;6405;59.208;18.216;2022-07-01T13:30:07;23.50;99.90
12682;DHT22;6405;59.208;18.216;2022-07-01T13:32:35;23.50;99.90
12682;DHT22;6405;59.208;18.216;2022-07-01T13:35:03;23.80;99.90
12682;DHT22;6405;59.208;18.216;2022-07-01T13:37:30;23.70;99.90
12682;DHT22;6405;59.208;18.216;2022-07-01T13:39:57;23.70;99.90
12682;DHT22;6405;59.208;18.216;2022-07-01T13:42:24;23.70;99.90
12682;DHT22;6405;59.208;18.216;2022-07-01T13:44:51;23.90;99.90
12682;DHT22;6405;59.208;18.216;2022-07-01T13:47:18;23.80;99.90
12682;DHT22;6405;59.208;18.216;2022-07-01T13:49:45;23.90;99.90
12682;DHT22;6405;59.208;18.216;2022-07-01T13:52:13;24.00;99.90
12682;DHT22;6405;59.208;18.216;2022-07-01T13:54:40;24.10;99.90
12682;DHT22;6405;59.208;18.216;2022-07-01T13:57:07;23.80;99.90
12682;DHT22;6405;59.208;18.216;2022-07-01T13:59:35;23.60;99.90
12682;DHT22;6405;59.208;18.216;2022-07-01T14:02:02;23.50;99.90
12682;DHT22;6405;59.208;18.216;2022-07-01T14:04:33;23.50;99.90
12682;DHT22;6405;59.208;18.216;2022-07-01T14:06:59;23.60;99.90
12682;DHT22;6405;59.208;18.216;2022-07-01T14:09:25;23.70;99.90
12682;DHT22;6405;59.208;18.216;2022-07-01T14:11:53;23.70;99.90
12682;DHT22;6405;59.208;18.216;2022-07-01T14:14:20;24.10;99.90
12682;DHT22;6405;59.208;18.216;2022-07-01T14:16:47;24.10;99.90
12682;DHT22;6405;59.208;18.216;2022-07-01T14:19:14;24.40;99.90
12682;DHT22;6405;59.208;18.216;2022-07-01T14:21:41;24.50;99.90
12682;DHT22;6405;59.208;18.216;2022-07-01T14:24:10;24.90;99.90
12682;DHT22;6405;59.208;18.216;2022-07-01T14:26:38;25.00;99.90
12682;DHT22;6405;59.208;18.216;2022-07-01T14:29:05;25.10;99.90
12682;DHT22;6405;59.208;18.216;2022-07-01T14:31:33;25.30;99.90
12682;DHT22;6405;59.208;18.216;2022-07-01T14:34:00;25.40;99.90
12682;DHT22;6405;59.208;18.216;2022-07-01T14:36:27;25.30;99.90
12682;DHT22;6405;59.208;18.216;2022-07-01T14:38:55;25.40;99.90
12682;DHT22;6405;59.208;18.216;2022-07-01T14:41:23;25.30;99.90
12682;DHT22;6405;59.208;18.216;2022-07-01T14:43:51;25.30;99.90
12682;DHT22;6405;59.208;18.216;2022-07-01T14:46:17;25.50;99.90
12682;DHT22;6405;59.208;18.216;2022-07-01T14:48:44;25.70;99.90
12682;DHT22;6405;59.208;18.216;2022-07-01T14:51:12;25.70;99.90
12682;DHT22;6405;59.208;18.216;2022-07-01T14:53:38;25.70;99.90
12682;DHT22;6405;59.208;18.216;2022-07-01T14:56:05;25.80;99.90
12682;DHT22;6405;59.208;18.216;2022-07-01T14:58:32;25.80;99.90
12682;DHT22;6405;59.208;18.216;2022-07-01T15:00:57;25.90;99.90
12682;DHT22;6405;59.208;18.216;2022-07-01T15:03:25;26.00;99.90
12682;DHT22;6405;59.208;18.216;2022-07-01T15:05:52;26.00;99.90
12682;DHT22;6405;59.208;18.216;2022-07-01T15:08:20;26.20;99.90
12682;DHT22;6405;59.208;18.216;2022-07-01T15:10:48;26.30;99.90
12682;DHT22;6405;59.208;18.216;2022-07-01T15:13:15;26.20;99.90
12682;DHT22;6405;59.208;18.216;2022-07-01T15:15:43;25.90;99.90
12682;DHT22;6405;59.208;18.216;2022-07-01T15:18:10;25.80;99.90
12682;DHT22;6405;59.208;18.216;2022-07-01T15:20:37;25.80;99.90
12682;DHT22;6405;59.208;18.216;2022-07-01T15:23:03;25.50;99.90
12682;DHT22;6405;59.208;18.216;2022-07-01T15:25:30;25.30;99.90
12682;DHT22;6405;59.208;18.216;2022-07-01T15:27:58;25.10;99.90
12682;DHT22;6405;59.208;18.216;2022-07-01T15:30:24;24.90;99.90
12682;DHT22;6405;59.208;18.216;2022-07-01T15:32:51;24.80;99.90
12682;DHT22;6405;59.208;18.216;2022-07-01T15:35:18;24.70;99.90
12682;DHT22;6405;59.208;18.216;2022-07-01T15:37:45;24.60;99.90
12682;DHT22;6405;59.208;18.216;2022-07-01T15:40:11;24.60;99.90
12682;DHT22;6405;59.208;18.216;2022-07-01T15:42:39;24.50;99.90
12682;DHT22;6405;59.208;18.216;2022-07-01T15:45:06;24.50;99.90
12682;DHT22;6405;59.208;18.216;2022-07-01T15:47:33;24.40;99.90
12682;DHT22;6405;59.208;18.216;2022-07-01T15:50:18;24.30;99.90
12682;DHT22;6405;59.208;18.216;2022-07-01T15:52:47;24.30;99.90
12682;DHT22;6405;59.208;18.216;2022-07-01T15:55:15;24.30;99.90
12682;DHT22;6405;59.208;18.216;2022-07-01T15:57:45;24.20;99.90
12682;DHT22;6405;59.208;18.216;2022-07-01T16:00:14;24.10;99.90
12682;DHT22;6405;59.208;18.216;2022-07-01T16:02:41;24.30;99.90